Time;durP1;ratioP1;P1;durP2;ratioP2;P2;SDS_P1;SDS_P2;PMS_P1;PMS_P2;Temp;Humidity;BMP_temperature;BMP_pressure;BME280_temperature;BME280_humidity;BME280_pressure;Samples;Min_cycle;Max_cycle;Signal;HPM_P1;HPM_P2
2021/11/05 00:01:32;;;;;;;6.22;2.00;;;;;;;6.85;71.87;98369.84;5049901;28;20757;-61
2021/11/05 00:03:57;;;;;;;4.20;1.60;;;;;;;6.91;71.24;98377.88;5039796;28;20115;-60
2021/11/05 00:06:22;;;;;;;4.57;1.83;;;;;;;6.83;71.57;98372.53;5049103;28;20029;-60
2021/11/05 00:08:48;;;;;;;5.35;1.70;;;;;;;6.31;71.39;98287.22;5060967;28;20016;-60
2021/11/05 00:11:13;;;;;;;5.15;1.70;;;;;;;6.61;71.46;98326.97;5039187;28;20029;-62
2021/11/05 00:13:39;;;;;;;4.57;1.73;;;;;;;6.83;71.32;98372.53;5048522;28;20053;-60
2021/11/05 00:16:04;;;;;;;4.47;1.80;;;;;;;6.88;71.58;98377.31;5038670;28;20119;-60
2021/11/05 00:18:29;;;;;;;4.65;1.77;;;;;;;6.85;70.99;98369.84;5050844;28;20052;-62
2021/11/05 00:20:55;;;;;;;4.25;1.70;;;;;;;6.90;70.91;98368.50;5058422;28;20055;-59
2021/11/05 00:23:20;;;;;;;3.88;1.55;;;;;;;6.86;71.73;98374.03;5038780;28;20155;-59
2021/11/05 00:25:46;;;;;;;4.47;1.88;;;;;;;6.79;71.90;98372.91;5045767;28;20024;-60
2021/11/05 00:28:11;;;;;;;4.28;1.63;;;;;;;6.78;72.89;98381.63;5045043;28;20066;-60
2021/11/05 00:30:37;;;;;;;4.32;1.73;;;;;;;6.80;72.67;98374.56;5053306;28;20483;-62
2021/11/05 00:33:03;;;;;;;6.13;1.88;;;;;;;6.76;72.39;98379.16;5051998;28;20025;-60
2021/11/05 00:35:28;;;;;;;4.30;1.48;;;;;;;6.72;72.25;98386.34;5047769;28;20032;-61
2021/11/05 00:37:53;;;;;;;3.83;1.40;;;;;;;6.28;72.90;98335.69;5056832;28;20030;-60
2021/11/05 00:40:20;;;;;;;4.28;1.60;;;;;;;6.64;73.39;98388.72;5054560;28;20426;-61
2021/11/05 00:42:45;;;;;;;4.68;1.77;;;;;;;6.55;73.04;98373.97;5050362;28;20044;-59
2021/11/05 00:45:11;;;;;;;3.80;1.40;;;;;;;6.56;72.80;98382.56;5042533;28;20091;-61
2021/11/05 00:47:37;;;;;;;5.20;1.75;;;;;;;6.58;73.05;98383.25;5053867;28;20067;-60
2021/11/05 00:50:04;;;;;;;3.80;1.42;;;;;;;6.51;73.51;98383.72;5056829;28;20036;-62
2021/11/05 00:52:29;;;;;;;3.95;1.50;;;;;;;6.54;72.94;98383.47;5051530;28;20081;-60
2021/11/05 00:54:55;;;;;;;3.45;1.42;;;;;;;6.56;73.14;98396.28;5058180;28;20024;-62
2021/11/05 00:57:20;;;;;;;4.25;1.48;;;;;;;6.64;71.94;98408.56;5050545;28;20062;-60
2021/11/05 00:59:45;;;;;;;3.78;1.48;;;;;;;6.15;72.54;98341.88;5056616;28;20032;-60
2021/11/05 01:02:12;;;;;;;3.75;1.35;;;;;;;6.54;72.52;98408.50;5057936;28;20546;-62
2021/11/05 01:04:37;;;;;;;3.90;1.48;;;;;;;6.56;72.20;98405.81;5052440;28;20021;-61
2021/11/05 01:07:03;;;;;;;4.35;1.50;;;;;;;6.51;72.40;98404.38;5037221;28;20061;-60
2021/11/05 01:09:28;;;;;;;3.47;1.35;;;;;;;6.57;73.23;98412.59;5058426;28;20029;-61
2021/11/05 01:11:53;;;;;;;7.47;1.48;;;;;;;6.57;73.51;98404.84;5052633;28;20391;-61
2021/11/05 01:14:19;;;;;;;4.97;1.40;;;;;;;6.49;73.06;98413.22;5057371;28;20111;-59
2021/11/05 01:16:45;;;;;;;4.18;1.48;;;;;;;6.38;72.35;98387.44;5056721;28;20033;-60
2021/11/05 01:19:11;;;;;;;5.43;1.60;;;;;;;6.25;72.66;98359.19;5052861;28;20136;-61
2021/11/05 01:21:36;;;;;;;3.53;1.30;;;;;;;6.46;72.92;98406.56;5038942;28;20044;-60
2021/11/05 01:24:01;;;;;;;3.80;1.50;;;;;;;6.20;73.36;98369.06;5034654;28;20041;-61
2021/11/05 01:26:27;;;;;;;4.00;1.50;;;;;;;6.31;73.52;98398.25;5055050;28;20029;-61
2021/11/05 01:28:52;;;;;;;3.50;1.40;;;;;;;6.41;74.02;98411.25;5051980;28;20038;-61
2021/11/05 01:31:18;;;;;;;3.35;1.10;;;;;;;6.39;72.84;98409.72;5051037;28;20055;-60
2021/11/05 01:33:45;;;;;;;3.25;1.20;;;;;;;6.36;72.64;98403.06;5039352;28;20036;-60
2021/11/05 01:36:11;;;;;;;3.83;1.40;;;;;;;6.35;72.79;98415.16;5029787;28;20885;-61
2021/11/05 01:38:37;;;;;;;3.40;1.27;;;;;;;6.41;72.41;98411.25;5037754;28;20021;-62
2021/11/05 01:41:02;;;;;;;3.40;1.20;;;;;;;6.39;72.28;98410.56;5051342;28;20028;-61
2021/11/05 01:43:28;;;;;;;4.57;1.23;;;;;;;6.42;71.64;98420.63;5038519;28;20739;-60
2021/11/05 01:45:53;;;;;;;2.97;1.00;;;;;;;6.35;72.36;98415.16;5054593;28;20055;-60
2021/11/05 01:48:18;;;;;;;3.67;1.30;;;;;;;6.31;73.25;98420.66;5053931;28;20024;-61
2021/11/05 01:50:44;;;;;;;3.58;1.15;;;;;;;6.29;73.08;98418.22;5040426;28;20025;-60
2021/11/05 01:53:10;;;;;;;3.85;1.20;;;;;;;6.22;72.55;98393.00;5039795;28;20462;-61
2021/11/05 01:55:36;;;;;;;3.97;1.50;;;;;;;6.27;72.23;98412.34;5048872;28;20052;-62
2021/11/05 01:58:01;;;;;;;3.08;1.00;;;;;;;6.24;72.63;98407.44;5056251;28;20059;-61
2021/11/05 02:00:29;;;;;;;3.50;1.20;;;;;;;6.30;72.19;98419.06;5052128;28;20037;-62
2021/11/05 02:02:55;;;;;;;3.17;1.13;;;;;;;6.21;72.87;98417.19;5056928;28;20716;-61
2021/11/05 02:05:21;;;;;;;3.17;1.23;;;;;;;6.23;72.48;98425.66;5046374;28;20029;-62
2021/11/05 02:07:53;;;;;;;3.55;1.30;;;;;;;6.16;73.13;98423.53;5036247;28;20782;-61
2021/11/05 02:10:20;;;;;;;3.40;1.17;;;;;;;6.05;72.82;98409.84;5051708;28;20086;-62
2021/11/05 02:12:47;;;;;;;3.42;1.20;;;;;;;6.10;72.81;98416.28;5050151;28;20044;-61
2021/11/05 02:15:14;;;;;;;3.30;1.00;;;;;;;6.16;72.96;98423.53;5052445;28;20471;-61
2021/11/05 02:17:40;;;;;;;3.15;1.10;;;;;;;6.12;73.54;98426.50;5052630;28;20100;-62
2021/11/05 02:20:08;;;;;;;3.63;1.08;;;;;;;5.74;73.60;98351.09;5046444;28;20028;-61
2021/11/05 02:22:34;;;;;;;4.00;1.20;;;;;;;6.15;73.39;98418.47;5036312;28;20223;-61
2021/11/05 02:24:59;;;;;;;3.00;1.20;;;;;;;5.84;72.62;98378.75;5055230;28;20057;-61
2021/11/05 02:27:28;;;;;;;3.95;1.00;;;;;;;5.80;73.13;98372.19;5043777;28;20116;-61
2021/11/05 02:29:56;;;;;;;3.28;1.10;;;;;;;6.09;73.25;98413.81;5055277;28;20036;-61
2021/11/05 02:32:21;;;;;;;2.95;1.08;;;;;;;5.69;72.37;98354.97;5058248;28;20376;-60
2021/11/05 02:34:47;;;;;;;3.38;1.17;;;;;;;6.05;72.65;98427.91;5056606;28;20084;-61
2021/11/05 02:37:12;;;;;;;3.25;1.10;;;;;;;6.10;72.47;98431.78;5036444;28;20270;-60
2021/11/05 02:39:38;;;;;;;3.25;1.20;;;;;;;5.68;72.91;98363.69;5049458;28;20471;-62
2021/11/05 02:42:04;;;;;;;3.95;1.25;;;;;;;6.05;72.92;98425.31;5047020;28;20107;-63
2021/11/05 02:44:29;;;;;;;3.90;1.10;;;;;;;6.12;72.94;98444.56;5052479;28;20029;-62
2021/11/05 02:46:55;;;;;;;2.00;0.70;;;;;;;6.13;73.41;98441.03;5054799;28;20039;-60
2021/11/05 02:49:21;;;;;;;3.28;1.13;;;;;;;5.95;73.64;98412.28;5036974;28;20032;-59
2021/11/05 02:51:49;;;;;;;3.25;1.10;;;;;;;6.04;73.30;98432.25;5050690;28;20504;-60
2021/11/05 02:54:14;;;;;;;3.97;1.25;;;;;;;5.68;73.19;98386.88;5052408;28;20020;-61
2021/11/05 02:56:40;;;;;;;3.08;1.10;;;;;;;6.00;73.09;98437.75;5058423;28;20641;-63
2021/11/05 02:59:06;;;;;;;3.20;1.10;;;;;;;6.03;73.53;98443.50;5045584;28;20016;-62
2021/11/05 03:01:33;;;;;;;3.00;1.00;;;;;;;5.89;73.27;98434.22;5056342;28;20052;-60
2021/11/05 03:04:00;;;;;;;2.47;0.80;;;;;;;5.89;73.42;98449.69;5051280;28;20021;-60
2021/11/05 03:06:26;;;;;;;3.22;1.20;;;;;;;5.88;73.36;98435.19;5054697;28;20856;-61
2021/11/05 03:08:51;;;;;;;2.65;0.85;;;;;;;5.96;72.44;98443.16;5034062;28;20056;-62
2021/11/05 03:11:16;;;;;;;3.15;1.10;;;;;;;5.91;72.97;98444.44;5064532;28;20064;-61
2021/11/05 03:13:43;;;;;;;3.90;0.98;;;;;;;5.82;72.92;98430.47;5051951;28;20510;-60
2021/11/05 03:16:09;;;;;;;3.88;1.20;;;;;;;5.89;73.08;98443.72;5052749;28;20024;-61
2021/11/05 03:18:39;;;;;;;2.65;0.90;;;;;;;5.85;73.50;98450.06;5054816;28;20048;-62
2021/11/05 03:21:04;;;;;;;5.25;1.10;;;;;;;5.65;72.43;98408.56;5039570;28;20028;-60
2021/11/05 03:23:30;;;;;;;3.05;1.17;;;;;;;5.95;72.95;98458.72;5043296;28;20028;-62
2021/11/05 03:25:55;;;;;;;3.67;1.10;;;;;;;5.96;72.73;98461.22;5047369;28;20059;-59
2021/11/05 03:28:21;;;;;;;3.15;1.20;;;;;;;5.84;72.63;98441.53;5061383;28;20063;-61
2021/11/05 03:30:46;;;;;;;4.15;1.20;;;;;;;5.97;72.64;98460.31;5050232;28;20035;-62
2021/11/05 03:33:12;;;;;;;2.47;0.90;;;;;;;5.75;72.93;98432.72;5063015;28;20398;-61
2021/11/05 03:35:38;;;;;;;3.17;1.10;;;;;;;5.97;72.44;98482.72;5061257;28;20510;-61
2021/11/05 03:38:03;;;;;;;2.88;0.98;;;;;;;5.96;72.94;98468.97;5055886;28;20090;-62
2021/11/05 03:40:29;;;;;;;2.53;0.82;;;;;;;5.99;73.04;98480.00;5053615;28;20771;-61
2021/11/05 03:42:54;;;;;;;3.38;1.00;;;;;;;5.94;73.16;98478.56;5046995;28;20032;-60
2021/11/05 03:45:20;;;;;;;3.03;0.93;;;;;;;5.92;72.96;98495.94;5057616;28;20028;-61
2021/11/05 03:47:46;;;;;;;3.33;1.10;;;;;;;5.96;73.12;98479.28;5053708;28;20032;-60
2021/11/05 03:50:12;;;;;;;3.50;1.10;;;;;;;5.88;73.62;98489.38;5057848;28;20975;-62
2021/11/05 03:52:38;;;;;;;3.08;1.10;;;;;;;5.83;73.52;98470.84;5052520;28;20036;-62
2021/11/05 03:55:05;;;;;;;2.80;0.90;;;;;;;5.93;73.38;98492.41;5041696;28;20032;-61
2021/11/05 03:57:30;;;;;;;3.10;0.95;;;;;;;5.89;74.19;98487.59;5056969;28;20029;-60
2021/11/05 03:59:56;;;;;;;3.70;1.00;;;;;;;5.85;74.04;98492.16;5040457;28;20021;-60
2021/11/05 04:02:22;;;;;;;4.60;1.20;;;;;;;5.88;73.86;98494.53;5052413;28;20063;-59
2021/11/05 04:04:47;;;;;;;3.85;0.90;;;;;;;5.63;73.17;98456.88;5049775;28;20029;-61
2021/11/05 04:07:13;;;;;;;3.13;1.00;;;;;;;5.47;73.85;98441.75;5061449;28;20435;-60
2021/11/05 04:09:38;;;;;;;3.60;0.90;;;;;;;5.82;74.52;98499.31;5054087;28;20028;-61
2021/11/05 04:12:04;;;;;;;3.60;0.95;;;;;;;5.87;72.94;98507.53;5043973;28;20028;-61
2021/11/05 04:14:29;;;;;;;2.47;1.00;;;;;;;5.90;72.78;98502.97;5050668;28;20032;-61
2021/11/05 04:16:55;;;;;;;2.20;0.80;;;;;;;5.80;72.54;98498.63;5050072;28;20029;-62
2021/11/05 04:19:20;;;;;;;2.03;0.70;;;;;;;5.90;72.04;98504.75;5054345;28;20032;-61
2021/11/05 04:21:46;;;;;;;3.60;1.20;;;;;;;5.58;72.64;98467.56;5054596;28;20029;-60
2021/11/05 04:24:11;;;;;;;3.85;1.40;;;;;;;5.90;72.04;98512.47;5042249;28;20021;-62
2021/11/05 04:26:37;;;;;;;2.90;0.90;;;;;;;5.85;72.12;98512.00;5059025;28;20024;-62
2021/11/05 04:29:04;;;;;;;2.17;0.80;;;;;;;5.75;72.93;98506.72;5060349;28;20519;-61
2021/11/05 04:31:29;;;;;;;2.55;0.90;;;;;;;5.72;72.83;98496.63;5053100;28;20031;-60
2021/11/05 04:33:55;;;;;;;2.13;0.80;;;;;;;5.73;72.80;98511.16;5017544;28;20033;-61
2021/11/05 04:36:21;;;;;;;2.35;0.88;;;;;;;5.70;72.39;98519.97;5059877;28;20104;-63
2021/11/05 04:38:47;;;;;;;3.20;1.08;;;;;;;5.75;72.47;98509.31;5056565;28;20029;-62
2021/11/05 04:41:13;;;;;;;3.00;0.90;;;;;;;5.74;71.95;98518.78;5060295;28;20031;-61
2021/11/05 04:43:38;;;;;;;2.78;0.90;;;;;;;5.46;72.44;98476.22;5037331;28;20965;-62
2021/11/05 04:46:03;;;;;;;2.47;0.85;;;;;;;5.79;71.99;98521.03;5036628;28;21670;-60
2021/11/05 04:48:29;;;;;;;2.45;0.80;;;;;;;5.45;72.45;98476.31;5042197;28;20123;-60
2021/11/05 04:50:54;;;;;;;2.55;0.70;;;;;;;5.71;72.22;98513.03;5053232;28;20016;-61
2021/11/05 04:53:20;;;;;;;2.78;1.00;;;;;;;5.68;71.77;98518.47;5060411;28;20028;-60
2021/11/05 04:55:45;;;;;;;2.13;0.80;;;;;;;5.64;72.93;98517.03;5049414;28;20032;-60
2021/11/05 04:58:11;;;;;;;1.60;0.70;;;;;;;5.73;72.27;98522.31;5050401;28;20044;-61
2021/11/05 05:00:36;;;;;;;1.95;0.70;;;;;;;5.74;71.16;98525.72;5042629;28;20471;-60
2021/11/05 05:03:02;;;;;;;3.42;1.02;;;;;;;5.74;71.07;98530.88;5048991;28;20028;-61
2021/11/05 05:05:27;;;;;;;2.67;0.80;;;;;;;5.27;71.49;98463.88;5055655;28;20253;-61
2021/11/05 05:07:53;;;;;;;2.45;0.80;;;;;;;5.70;71.25;98516.56;5051789;28;20036;-60
2021/11/05 05:10:20;;;;;;;2.60;0.90;;;;;;;5.66;71.50;98526.31;5056261;28;20017;-61
2021/11/05 05:12:45;;;;;;;3.67;1.00;;;;;;;5.63;71.36;98521.38;5054053;28;20574;-61
2021/11/05 05:15:12;;;;;;;3.58;1.02;;;;;;;5.68;70.91;98536.50;5057648;28;20108;-61
2021/11/05 05:17:38;;;;;;;2.60;0.85;;;;;;;5.69;71.17;98538.13;5046379;28;20063;-59
2021/11/05 05:20:05;;;;;;;2.20;0.80;;;;;;;5.66;70.09;98536.63;5037624;28;20123;-62
2021/11/05 05:22:30;;;;;;;2.47;0.80;;;;;;;5.67;68.99;98520.19;5048557;28;20592;-61
2021/11/05 05:24:56;;;;;;;2.08;0.75;;;;;;;5.69;70.00;98533.78;5052492;28;20025;-60
2021/11/05 05:27:21;;;;;;;4.20;1.00;;;;;;;5.66;70.43;98526.31;5056580;28;20486;-60
2021/11/05 05:29:48;;;;;;;2.47;0.93;;;;;;;5.73;69.51;98548.13;5050876;28;20572;-61
2021/11/05 05:32:14;;;;;;;2.20;0.80;;;;;;;5.67;69.95;98540.84;5054697;28;20024;-60
2021/11/05 05:34:40;;;;;;;1.80;0.63;;;;;;;5.74;68.49;98541.19;5048586;28;20029;-60
2021/11/05 05:37:05;;;;;;;2.63;0.70;;;;;;;5.75;69.55;98550.59;5042971;28;20479;-62
2021/11/05 05:39:31;;;;;;;2.40;0.80;;;;;;;5.72;70.92;98567.09;5047691;28;20021;-60
2021/11/05 05:41:56;;;;;;;1.95;0.68;;;;;;;5.77;71.30;98564.19;5053644;28;20032;-59
2021/11/05 05:44:28;;;;;;;2.42;0.70;;;;;;;5.72;71.14;98553.41;5070548;27;20392;-60
2021/11/05 05:46:54;;;;;;;2.25;0.80;;;;;;;5.68;71.34;98567.47;5087868;28;20146;-60
2021/11/05 05:49:19;;;;;;;2.90;0.68;;;;;;;5.73;72.25;98567.91;5080422;28;20028;-60
2021/11/05 05:51:45;;;;;;;4.50;0.77;;;;;;;5.65;71.29;98565.09;5087137;28;20376;-61
2021/11/05 05:54:10;;;;;;;2.90;0.80;;;;;;;5.56;71.81;98564.03;5095104;28;20032;-59
2021/11/05 05:56:35;;;;;;;2.22;0.80;;;;;;;5.53;72.38;98579.72;5083444;28;20117;-62
2021/11/05 05:59:01;;;;;;;2.90;0.88;;;;;;;5.57;72.19;98576.00;5083104;28;20048;-62
2021/11/05 06:01:27;;;;;;;3.53;0.70;;;;;;;5.31;72.05;98541.81;5079224;28;20032;-62
2021/11/05 06:03:52;;;;;;;5.13;1.00;;;;;;;5.57;71.90;98578.59;5065496;28;20326;-60
2021/11/05 06:06:17;;;;;;;3.80;0.80;;;;;;;5.33;72.34;98552.81;5091496;28;20055;-61
2021/11/05 06:08:44;;;;;;;1.52;0.60;;;;;;;5.57;71.74;98579.41;5071945;28;20198;-61
2021/11/05 06:11:09;;;;;;;2.38;0.80;;;;;;;5.56;71.89;98585.47;5085095;28;20384;-63
2021/11/05 06:13:35;;;;;;;2.67;0.90;;;;;;;5.58;72.12;98590.53;5087695;28;20036;-60
2021/11/05 06:16:02;;;;;;;3.45;0.90;;;;;;;5.56;72.16;98594.97;5084780;28;20034;-61
2021/11/05 06:18:27;;;;;;;2.30;0.80;;;;;;;5.55;72.30;98585.63;5089728;28;20031;-60
2021/11/05 06:20:52;;;;;;;1.45;0.60;;;;;;;5.53;72.27;98584.88;5083513;28;20020;-60
2021/11/05 06:23:18;;;;;;;2.92;0.73;;;;;;;5.54;72.40;98591.69;5091943;28;20057;-61
2021/11/05 06:25:43;;;;;;;2.75;0.90;;;;;;;5.56;71.72;98592.41;5086450;28;20395;-61
2021/11/05 06:28:09;;;;;;;2.63;0.80;;;;;;;5.54;72.14;98594.28;5090024;28;20022;-61
2021/11/05 06:30:34;;;;;;;2.00;0.70;;;;;;;5.57;72.08;98601.81;5084660;28;20028;-61
2021/11/05 06:33:01;;;;;;;3.30;0.80;;;;;;;5.58;71.96;98593.94;5094769;28;20024;-62
2021/11/05 06:35:28;;;;;;;4.00;0.80;;;;;;;5.29;71.95;98559.16;5089034;28;20023;-60
2021/11/05 06:37:53;;;;;;;2.63;0.82;;;;;;;5.52;72.00;98609.06;5077065;28;20482;-60
2021/11/05 06:40:19;;;;;;;3.17;0.98;;;;;;;5.45;72.91;98600.94;5093208;28;20036;-59
2021/11/05 06:42:44;;;;;;;3.83;0.80;;;;;;;5.54;72.39;98610.56;5086075;28;20031;-63
2021/11/05 06:45:10;;;;;;;2.35;0.80;;;;;;;5.56;71.62;98613.03;5088580;28;20023;-61
2021/11/05 06:47:37;;;;;;;2.70;0.85;;;;;;;5.62;71.57;98615.16;5063357;28;20024;-60
2021/11/05 06:50:04;;;;;;;3.47;0.80;;;;;;;5.63;71.63;98627.13;5078316;28;20039;-58
2021/11/05 06:52:30;;;;;;;3.38;1.00;;;;;;;5.71;71.50;98627.41;5077082;28;20565;-61
2021/11/05 06:54:56;;;;;;;2.95;0.93;;;;;;;5.63;72.12;98621.97;5072307;28;20032;-61
2021/11/05 06:57:21;;;;;;;2.70;0.80;;;;;;;5.42;71.71;98606.34;5061395;28;20027;-61
2021/11/05 06:59:47;;;;;;;4.15;1.02;;;;;;;5.63;72.33;98644.38;5068227;28;20032;-62
2021/11/05 07:02:12;;;;;;;4.20;1.00;;;;;;;5.62;72.67;98638.38;5058122;28;20078;-61
2021/11/05 07:04:37;;;;;;;3.30;1.00;;;;;;;5.64;72.61;98644.28;5049512;28;20035;-63
2021/11/05 07:07:03;;;;;;;5.07;0.90;;;;;;;5.70;72.77;98653.31;5059916;28;20097;-62
2021/11/05 07:09:28;;;;;;;2.60;0.80;;;;;;;5.51;72.76;98628.03;5066830;28;20089;-63
2021/11/05 07:11:54;;;;;;;2.60;0.80;;;;;;;5.66;71.71;98663.03;5069131;28;20032;-61
2021/11/05 07:14:19;;;;;;;2.15;0.80;;;;;;;5.66;70.92;98657.03;5070896;28;20052;-63
2021/11/05 07:16:45;;;;;;;1.42;0.60;;;;;;;5.74;69.88;98665.03;5063679;28;20080;-61
2021/11/05 07:19:11;;;;;;;2.55;0.88;;;;;;;5.69;70.47;98670.53;5066662;28;20135;-62
2021/11/05 07:21:37;;;;;;;3.60;0.90;;;;;;;5.78;69.94;98676.78;5070038;28;20055;-62
2021/11/05 07:24:04;;;;;;;3.05;0.82;;;;;;;5.82;70.52;98688.50;5076597;28;20123;-60
2021/11/05 07:26:35;;;;;;;2.78;0.73;;;;;;;5.71;70.79;98680.75;5067258;28;20056;-60
2021/11/05 07:29:05;;;;;;;1.38;0.60;;;;;;;5.70;70.27;98692.81;5067010;28;20055;-62
2021/11/05 07:31:31;;;;;;;4.00;0.82;;;;;;;5.70;69.16;98694.59;5063222;28;20021;-62
2021/11/05 07:33:56;;;;;;;3.13;0.90;;;;;;;5.78;68.15;98700.81;5071389;28;20046;-61
2021/11/05 07:36:22;;;;;;;3.00;0.90;;;;;;;5.61;68.23;98669.47;5078040;28;20139;-62
2021/11/05 07:38:47;;;;;;;2.88;0.80;;;;;;;5.82;68.61;98711.72;5068728;28;20771;-61
2021/11/05 07:41:12;;;;;;;2.65;0.70;;;;;;;5.81;68.82;98710.09;5071117;28;20085;-63
2021/11/05 07:43:38;;;;;;;2.78;0.88;;;;;;;5.75;69.20;98700.25;5056083;28;20032;-61
2021/11/05 07:46:03;;;;;;;2.13;0.80;;;;;;;5.84;69.13;98716.78;5064710;28;20034;-63
2021/11/05 07:48:29;;;;;;;2.97;0.80;;;;;;;5.80;68.72;98710.22;5048409;28;20024;-61
2021/11/05 07:50:54;;;;;;;4.07;0.90;;;;;;;5.77;69.19;98719.00;5066002;28;20402;-58
2021/11/05 07:53:20;;;;;;;2.45;0.77;;;;;;;5.80;69.30;98723.94;5068852;28;20032;-62
2021/11/05 07:55:47;;;;;;;2.70;0.98;;;;;;;5.32;69.11;98647.41;5073899;28;20881;-60
2021/11/05 07:58:12;;;;;;;3.10;0.80;;;;;;;5.88;67.68;98721.63;5063277;28;20032;-61
2021/11/05 08:00:37;;;;;;;3.13;0.70;;;;;;;5.61;67.33;98674.63;5063641;28;20029;-63
2021/11/05 08:03:03;;;;;;;2.50;0.70;;;;;;;5.90;67.67;98719.75;5067710;28;20632;-63
2021/11/05 08:05:28;;;;;;;2.25;0.75;;;;;;;6.04;67.00;98738.59;5051980;28;20036;-61
2021/11/05 08:07:54;;;;;;;2.97;0.90;;;;;;;5.99;69.67;98736.38;5074237;28;20597;-63
2021/11/05 08:10:20;;;;;;;4.07;1.00;;;;;;;5.97;68.89;98740.81;5057950;28;20028;-63
2021/11/05 08:12:47;;;;;;;3.38;0.93;;;;;;;5.84;70.78;98737.44;5072009;28;20607;-60
2021/11/05 08:15:13;;;;;;;3.70;1.20;;;;;;;5.87;68.99;98742.38;5059611;28;20727;-61
2021/11/05 08:17:39;;;;;;;4.07;1.17;;;;;;;5.90;71.70;98737.00;5068310;28;20081;-61
2021/11/05 08:20:05;;;;;;;4.68;1.40;;;;;;;5.83;73.37;98743.53;5054981;28;20032;-61
2021/11/05 08:22:30;;;;;;;4.32;1.50;;;;;;;5.86;73.19;98756.22;5077536;28;20031;-61
2021/11/05 08:24:55;;;;;;;7.57;1.65;;;;;;;5.94;72.51;98759.06;5065891;28;20032;-59
2021/11/05 08:27:21;;;;;;;2.65;0.90;;;;;;;5.69;68.39;98735.03;5070808;28;20082;-60
2021/11/05 08:29:47;;;;;;;3.13;1.10;;;;;;;5.92;68.38;98759.19;5057592;28;20062;-59
2021/11/05 08:32:13;;;;;;;2.97;0.70;;;;;;;5.58;66.26;98714.34;5062456;28;20119;-60
2021/11/05 08:34:39;;;;;;;3.53;0.93;;;;;;;5.98;65.71;98765.69;5071152;28;20543;-60
2021/11/05 08:37:05;;;;;;;3.70;1.42;;;;;;;6.04;65.14;98761.81;5062905;28;20819;-60
2021/11/05 08:39:31;;;;;;;3.20;1.10;;;;;;;6.09;67.38;98773.47;5072029;28;20476;-61
2021/11/05 08:41:56;;;;;;;2.80;0.90;;;;;;;6.04;68.14;98761.81;5064970;28;20031;-60
2021/11/05 08:44:21;;;;;;;3.83;1.17;;;;;;;6.05;69.90;98772.03;5053541;28;20568;-62
2021/11/05 08:46:47;;;;;;;3.95;1.00;;;;;;;5.90;69.05;98753.31;5063073;28;20043;-61
2021/11/05 08:49:15;;;;;;;2.92;0.80;;;;;;;6.10;66.04;98769.13;5063263;28;20060;-60
2021/11/05 08:51:43;;;;;;;1.85;0.70;;;;;;;5.67;67.07;98713.69;5075392;28;20111;-59
2021/11/05 08:54:09;;;;;;;2.58;0.90;;;;;;;6.02;70.12;98764.50;5064959;28;20062;-59
2021/11/05 08:56:35;;;;;;;2.97;1.02;;;;;;;5.99;70.65;98769.06;5055211;28;20027;-59
2021/11/05 08:59:01;;;;;;;2.33;0.75;;;;;;;5.95;67.33;98771.91;5071034;28;20027;-59
2021/11/05 09:01:26;;;;;;;2.70;0.80;;;;;;;6.20;64.97;98775.25;5067169;28;20024;-60
2021/11/05 09:03:52;;;;;;;4.32;1.45;;;;;;;6.14;66.51;98757.63;5060187;28;20029;-60
2021/11/05 09:06:17;;;;;;;4.20;1.27;;;;;;;6.28;63.42;98769.50;5060707;28;20511;-59
2021/11/05 09:08:44;;;;;;;10.55;2.03;;;;;;;5.85;64.02;98726.19;5062897;28;20758;-61
2021/11/05 09:11:09;;;;;;;5.18;1.60;;;;;;;6.15;63.55;98774.75;5059003;28;20590;-61
2021/11/05 09:13:35;;;;;;;5.47;1.48;;;;;;;5.97;66.96;98741.63;5071086;28;20554;-61
2021/11/05 09:16:02;;;;;;;4.57;1.38;;;;;;;6.17;66.29;98788.41;5071662;28;20043;-63
2021/11/05 09:18:28;;;;;;;4.20;1.50;;;;;;;6.10;66.73;98784.63;5074686;28;20025;-62
2021/11/05 09:20:54;;;;;;;5.68;1.40;;;;;;;6.11;70.17;98779.31;5073069;28;20618;-61
2021/11/05 09:23:20;;;;;;;4.47;2.00;;;;;;;6.16;70.43;98786.75;5050460;28;20025;-61
2021/11/05 09:25:45;;;;;;;5.30;1.48;;;;;;;6.11;67.55;98789.66;5076451;28;20028;-62
2021/11/05 09:28:10;;;;;;;4.07;1.38;;;;;;;6.11;65.44;98784.50;5076680;28;20048;-62
2021/11/05 09:30:37;;;;;;;7.63;1.70;;;;;;;6.14;65.29;98797.19;5067034;28;20162;-60
2021/11/05 09:33:02;;;;;;;6.63;1.50;;;;;;;6.14;63.32;98796.38;5066433;28;20028;-62
2021/11/05 09:35:28;;;;;;;3.67;0.70;;;;;;;6.29;61.66;98804.75;5058592;28;20032;-61
2021/11/05 09:37:54;;;;;;;3.50;0.90;;;;;;;6.47;63.12;98808.56;5064535;28;20108;-61
2021/11/05 09:40:25;;;;;;;2.28;0.80;;;;;;;6.31;60.56;98751.22;5073452;28;20502;-61
2021/11/05 09:42:53;;;;;;;2.55;0.70;;;;;;;6.77;59.85;98809.78;5069523;28;20069;-61
2021/11/05 09:45:19;;;;;;;2.83;0.75;;;;;;;6.85;60.00;98807.44;5074100;28;20681;-60
2021/11/05 09:47:44;;;;;;;2.33;0.68;;;;;;;6.88;57.80;98807.22;5073357;28;20398;-62
2021/11/05 09:50:12;;;;;;;2.08;0.77;;;;;;;7.03;58.28;98815.56;5069927;28;20060;-63
2021/11/05 09:52:38;;;;;;;3.20;1.25;;;;;;;7.17;58.65;98813.69;5064346;28;20514;-62
2021/11/05 09:55:06;;;;;;;5.50;0.88;;;;;;;7.31;57.32;98823.78;5069290;28;20042;-62
2021/11/05 09:57:31;;;;;;;3.47;1.00;;;;;;;7.34;56.68;98815.81;5063504;28;20116;-61
2021/11/05 09:59:57;;;;;;;2.83;0.75;;;;;;;7.42;55.51;98828.94;5071823;28;20135;-62
2021/11/05 10:02:24;;;;;;;2.88;0.80;;;;;;;7.20;54.62;98775.47;5070254;28;20028;-63
2021/11/05 10:04:52;;;;;;;1.98;0.70;;;;;;;7.54;54.65;98821.16;5057607;28;20044;-61
2021/11/05 10:07:18;;;;;;;2.00;0.70;;;;;;;7.59;54.01;98819.84;5074160;28;20066;-61
2021/11/05 10:09:50;;;;;;;1.63;0.57;;;;;;;7.73;53.64;98823.97;5071753;28;20297;-62
2021/11/05 10:12:19;;;;;;;2.53;0.60;;;;;;;7.67;54.00;98793.41;5055577;28;20028;-62
2021/11/05 10:14:52;;;;;;;2.22;0.70;;;;;;;7.83;53.60;98811.09;5071991;28;20046;-61
2021/11/05 10:17:18;;;;;;;1.98;0.60;;;;;;;7.99;53.93;98818.47;5070708;28;20509;-61
2021/11/05 10:19:54;;;;;;;1.85;0.70;;;;;;;7.80;54.47;98772.53;5051383;28;20064;-63
2021/11/05 10:22:43;;;;;;;2.22;0.65;;;;;;;8.17;54.20;98816.16;5071702;28;20025;-62
2021/11/05 10:25:33;;;;;;;2.47;0.80;;;;;;;8.35;54.46;98821.63;5077312;28;20034;-61
2021/11/05 10:28:01;;;;;;;1.95;0.60;;;;;;;8.40;53.54;98817.72;5062749;28;20266;-60
2021/11/05 10:30:27;;;;;;;2.50;0.80;;;;;;;8.18;53.20;98784.16;5078639;28;20028;-62
2021/11/05 10:32:57;;;;;;;2.42;0.70;;;;;;;8.09;53.88;98775.34;5073425;28;20765;-61
2021/11/05 10:35:23;;;;;;;2.65;0.70;;;;;;;8.27;53.40;98810.13;5079037;28;20051;-64
2021/11/05 10:38:00;;;;;;;2.30;0.73;;;;;;;8.38;54.05;98817.03;5069182;28;20111;-61
2021/11/05 10:40:32;;;;;;;3.33;0.85;;;;;;;8.24;54.54;98784.47;5078819;28;20119;-61
2021/11/05 10:42:58;;;;;;;3.10;0.82;;;;;;;8.53;54.11;98837.47;5076064;28;20185;-61
2021/11/05 10:45:25;;;;;;;1.85;0.63;;;;;;;8.61;53.00;98835.88;5055632;28;20522;-60
2021/11/05 10:47:58;;;;;;;2.13;0.60;;;;;;;8.69;53.91;98831.81;5079184;28;20064;-61
2021/11/05 10:50:23;;;;;;;2.92;0.80;;;;;;;8.39;52.98;98792.72;5080598;28;20026;-61
2021/11/05 10:53:00;;;;;;;5.47;1.90;;;;;;;8.48;50.93;98805.94;5075487;28;20474;-64
2021/11/05 10:55:44;;;;;;;3.53;1.20;;;;;;;8.86;49.85;98836.44;5075653;28;20119;-60
2021/11/05 10:58:25;;;;;;;4.00;0.93;;;;;;;8.83;50.21;98829.75;5074771;28;20024;-61
2021/11/05 11:00:58;;;;;;;2.75;0.70;;;;;;;8.93;50.21;98834.97;5063688;28;20024;-62
2021/11/05 11:03:32;;;;;;;4.35;1.70;;;;;;;9.07;50.20;98822.63;5063318;28;20032;-61
2021/11/05 11:06:09;;;;;;;3.58;1.10;;;;;;;8.99;49.39;98821.50;5078690;28;20038;-61
2021/11/05 11:08:46;;;;;;;2.35;0.90;;;;;;;9.06;49.27;98813.22;5065045;28;20025;-61
2021/11/05 11:11:20;;;;;;;2.25;0.70;;;;;;;9.04;49.96;98783.03;5066428;28;20028;-62
2021/11/05 11:13:51;;;;;;;3.30;1.05;;;;;;;9.35;49.52;98810.72;5073373;28;20103;-61
2021/11/05 11:16:29;;;;;;;3.33;0.88;;;;;;;9.48;48.64;98815.69;5069954;28;20023;-62
2021/11/05 11:19:00;;;;;;;2.22;0.57;;;;;;;9.56;48.54;98797.66;5077040;28;20020;-63
2021/11/05 11:21:29;;;;;;;2.58;0.70;;;;;;;9.59;48.07;98793.00;5052619;28;20078;-63
2021/11/05 11:23:55;;;;;;;4.32;0.75;;;;;;;9.65;48.29;98803.81;5064487;28;20020;-62
2021/11/05 11:26:20;;;;;;;3.03;1.13;;;;;;;9.73;49.28;98804.78;5062494;28;20110;-62
2021/11/05 11:28:46;;;;;;;6.63;2.33;;;;;;;9.81;49.81;98796.31;5074306;28;20467;-61
2021/11/05 11:31:13;;;;;;;2.90;0.95;;;;;;;9.82;49.94;98801.38;5079073;28;20056;-61
2021/11/05 11:33:40;;;;;;;2.20;0.65;;;;;;;9.98;51.11;98813.00;5069620;28;20050;-63
2021/11/05 11:36:07;;;;;;;2.05;0.70;;;;;;;10.16;49.06;98811.38;5068852;28;20046;-61
2021/11/05 11:38:33;;;;;;;3.63;0.98;;;;;;;10.09;49.54;98789.47;5059420;28;20057;-61